Time;durP1;ratioP1;P1;durP2;ratioP2;P2;SDS_P1;SDS_P2;PMS_P1;PMS_P2;Temp;Humidity;BMP_temperature;BMP_pressure;BME280_temperature;BME280_humidity;BME280_pressure;Samples;Min_cycle;Max_cycle;Signal;HPM_P1;HPM_P2
2023/01/08 00:00:06;;;;;;;107.10;37.80;;;;;;;3.63;100.00;100081.94;5092682;23;24962;-69
2023/01/08 00:02:33;;;;;;;122.27;38.30;;;;;;;3.57;100.00;100077.09;5079519;23;20202;-69
2023/01/08 00:04:59;;;;;;;106.93;36.63;;;;;;;3.59;100.00;100076.03;5088716;23;20203;-66
2023/01/08 00:07:26;;;;;;;105.20;37.43;;;;;;;3.61;100.00;100083.84;5098964;23;20210;-70
2023/01/08 00:09:53;;;;;;;112.53;38.57;;;;;;;3.58;100.00;100084.03;5092826;23;20203;-68
2023/01/08 00:12:20;;;;;;;118.93;39.10;;;;;;;3.52;100.00;100076.59;5069245;23;20648;-70
2023/01/08 00:14:46;;;;;;;113.77;37.70;;;;;;;3.56;100.00;100083.34;5089363;23;21315;-70
2023/01/08 00:17:13;;;;;;;110.80;39.00;;;;;;;3.55;100.00;100086.91;5096585;23;20280;-66
2023/01/08 00:19:40;;;;;;;115.10;37.67;;;;;;;3.55;100.00;100086.91;5101321;23;20263;-68
2023/01/08 00:22:07;;;;;;;109.83;39.43;;;;;;;3.52;100.00;100087.13;5091049;23;20210;-69
2023/01/08 00:24:33;;;;;;;112.93;36.70;;;;;;;3.47;100.00;100076.09;5060623;23;20204;-70
2023/01/08 00:27:00;;;;;;;114.43;37.83;;;;;;;3.46;100.00;100084.91;5105132;23;20199;-69
2023/01/08 00:29:26;;;;;;;103.13;35.77;;;;;;;3.40;100.00;100075.69;5102706;23;25226;-67
2023/01/08 00:31:53;;;;;;;101.83;34.87;;;;;;;3.34;100.00;100078.72;5115770;23;25039;-68
2023/01/08 00:34:20;;;;;;;100.60;33.77;;;;;;;3.33;100.00;100071.78;5068697;22;21071;-69
2023/01/08 00:36:46;;;;;;;103.57;37.07;;;;;;;3.36;100.00;100072.41;5077552;23;20207;-68
2023/01/08 00:39:13;;;;;;;101.27;34.03;;;;;;;3.35;100.00;100064.66;5117967;23;20212;-67
2023/01/08 00:41:43;;;;;;;95.07;34.40;;;;;;;3.32;100.00;100063.03;5135235;23;20205;-69
2023/01/08 00:44:09;;;;;;;93.57;32.77;;;;;;;3.32;100.00;100065.66;5115629;23;20278;-69
2023/01/08 00:46:36;;;;;;;92.53;32.43;;;;;;;3.23;100.00;100061.09;5084392;23;20202;-70
2023/01/08 00:49:02;;;;;;;98.47;34.40;;;;;;;3.20;100.00;100061.28;5101710;23;20433;-69
2023/01/08 00:51:29;;;;;;;88.20;32.00;;;;;;;3.19;100.00;100062.25;5089095;23;20417;-69
2023/01/08 00:53:55;;;;;;;83.80;31.27;;;;;;;3.03;100.00;100061.63;5090581;23;20214;-68
2023/01/08 00:56:22;;;;;;;90.13;31.90;;;;;;;3.03;100.00;100059.84;5090460;23;22927;-67
2023/01/08 00:58:49;;;;;;;86.80;30.90;;;;;;;3.00;100.00;100054.78;5087763;23;20207;-71
2023/01/08 01:01:15;;;;;;;87.37;30.73;;;;;;;3.02;100.00;100059.94;5092754;23;20327;-67
2023/01/08 01:03:42;;;;;;;85.50;30.30;;;;;;;2.98;100.00;100047.97;5117847;22;21030;-67
2023/01/08 01:06:09;;;;;;;78.00;29.00;;;;;;;2.89;100.00;100052.91;5092846;23;21096;-68
2023/01/08 01:08:36;;;;;;;79.97;29.47;;;;;;;2.89;100.00;100055.53;5104218;23;21912;-67
2023/01/08 01:11:12;;;;;;;77.07;29.27;;;;;;;2.83;100.00;100053.31;5102534;23;20202;-67
2023/01/08 01:13:39;;;;;;;84.30;29.40;;;;;;;2.82;100.00;100045.53;5089069;23;20224;-70
2023/01/08 01:16:06;;;;;;;81.33;29.73;;;;;;;2.87;100.00;100038.19;5113339;23;20216;-70
2023/01/08 01:18:33;;;;;;;79.67;30.03;;;;;;;2.79;100.00;100041.34;5086381;23;22600;-67
2023/01/08 01:20:59;;;;;;;80.20;31.13;;;;;;;2.74;100.00;100036.41;5085634;23;20215;-71
2023/01/08 01:23:26;;;;;;;75.13;28.93;;;;;;;2.72;100.00;100030.41;5108849;23;20257;-68
2023/01/08 01:25:53;;;;;;;76.83;30.63;;;;;;;2.73;100.00;100034.69;5109147;23;20311;-65
2023/01/08 01:28:20;;;;;;;73.90;30.47;;;;;;;2.71;100.00;100027.88;5108347;23;20205;-69
2023/01/08 01:30:52;;;;;;;78.37;31.03;;;;;;;2.73;100.00;100041.75;5108159;23;20208;-67
2023/01/08 01:33:19;;;;;;;76.50;29.73;;;;;;;2.72;100.00;100029.56;5098075;23;20295;-68
2023/01/08 01:35:46;;;;;;;77.37;30.90;;;;;;;2.70;100.00;100039.34;5094353;23;20209;-70
2023/01/08 01:38:12;;;;;;;71.90;29.90;;;;;;;2.70;100.00;100029.66;5089110;23;20270;-67
2023/01/08 01:40:42;;;;;;;68.07;28.20;;;;;;;2.70;100.00;100031.47;5085423;23;20422;-67
2023/01/08 01:43:13;;;;;;;76.70;30.27;;;;;;;2.64;100.00;100027.44;5123602;23;20314;-70
2023/01/08 01:45:40;;;;;;;69.63;29.63;;;;;;;2.60;100.00;100030.38;5087084;23;20206;-70
2023/01/08 01:48:11;;;;;;;72.33;29.83;;;;;;;2.61;100.00;100030.28;5092657;23;20384;-68
2023/01/08 01:50:47;;;;;;;71.70;29.40;;;;;;;2.57;100.00;100020.94;5114594;22;21301;-69
2023/01/08 01:53:26;;;;;;;70.23;28.00;;;;;;;2.55;100.00;100017.56;5095671;22;20202;-68
2023/01/08 01:55:53;;;;;;;65.93;27.83;;;;;;;2.52;100.00;100013.34;5112212;22;20237;-69
2023/01/08 01:58:23;;;;;;;66.20;28.63;;;;;;;2.56;100.00;100010.56;5087140;22;20278;-67
2023/01/08 02:00:51;;;;;;;68.90;28.33;;;;;;;2.59;100.00;100007.69;5103579;22;21204;-66
2023/01/08 02:03:23;;;;;;;65.30;28.10;;;;;;;2.51;100.00;99998.56;5124550;22;20283;-71
2023/01/08 02:05:55;;;;;;;68.77;27.67;;;;;;;2.56;100.00;100000.88;5118410;22;20266;-67
2023/01/08 02:08:25;;;;;;;66.30;27.47;;;;;;;2.52;100.00;100000.22;5087308;22;21293;-69
2023/01/08 02:10:55;;;;;;;69.70;28.70;;;;;;;2.54;100.00;100000.97;5105524;22;21825;-66
2023/01/08 02:13:26;;;;;;;69.47;28.23;;;;;;;2.63;100.00;100002.13;5106975;22;20207;-67
2023/01/08 02:16:09;;;;;;;66.40;27.57;;;;;;;2.65;100.00;99991.53;5106749;22;20693;-64
2023/01/08 02:18:52;;;;;;;64.40;26.93;;;;;;;2.62;100.00;99996.97;5092957;23;20210;-68
2023/01/08 02:21:30;;;;;;;62.37;26.93;;;;;;;2.66;100.00;99995.84;5089938;22;20203;-67
2023/01/08 02:24:06;;;;;;;67.27;27.57;;;;;;;2.65;100.00;99991.53;5115851;22;20213;-66
2023/01/08 02:26:34;;;;;;;66.13;28.60;;;;;;;2.66;100.00;99980.91;5112336;22;20284;-68
2023/01/08 02:29:09;;;;;;;63.13;27.13;;;;;;;2.69;100.00;99983.34;5083890;22;20209;-66
2023/01/08 02:31:39;;;;;;;66.27;27.87;;;;;;;2.72;100.00;99990.16;5123245;22;20725;-66
2023/01/08 02:34:06;;;;;;;65.83;28.27;;;;;;;2.78;100.00;99981.84;5104336;22;20618;-68
2023/01/08 02:36:46;;;;;;;68.83;27.53;;;;;;;2.76;100.00;99981.09;5106974;22;23580;-69
2023/01/08 02:39:40;;;;;;;67.80;28.07;;;;;;;2.78;100.00;99981.84;5086663;22;21782;-67
2023/01/08 02:42:20;;;;;;;67.03;27.50;;;;;;;2.82;100.00;99977.22;5102894;22;20286;-69
2023/01/08 02:44:58;;;;;;;65.97;27.90;;;;;;;2.79;100.00;99980.91;5085458;22;20209;-71
2023/01/08 02:47:41;;;;;;;59.97;27.57;;;;;;;2.85;100.00;99977.84;5079500;23;20204;-66
2023/01/08 02:50:29;;;;;;;59.43;26.03;;;;;;;2.83;100.00;99971.00;5096429;23;20324;-70
2023/01/08 02:53:03;;;;;;;60.73;26.67;;;;;;;2.80;100.00;99974.69;5107367;23;20557;-68
2023/01/08 02:55:33;;;;;;;60.50;27.10;;;;;;;2.81;100.00;99967.66;5064465;23;20373;-70
2023/01/08 02:57:59;;;;;;;50.50;24.53;;;;;;;2.80;100.00;99969.44;5078390;23;22914;-68
2023/01/08 03:00:26;;;;;;;52.03;23.57;;;;;;;2.79;100.00;99967.78;5071362;23;20215;-68
2023/01/08 03:03:02;;;;;;;53.70;24.23;;;;;;;2.82;100.00;99970.19;5085116;23;20254;-69
2023/01/08 03:05:28;;;;;;;50.70;23.63;;;;;;;2.80;100.00;99965.97;5098091;23;20206;-70
2023/01/08 03:07:55;;;;;;;48.40;22.43;;;;;;;2.79;100.00;99959.88;5088367;23;20412;-69
2023/01/08 03:10:23;;;;;;;48.20;21.77;;;;;;;2.72;100.00;99962.09;5088540;23;20293;-69
2023/01/08 03:12:57;;;;;;;49.10;22.70;;;;;;;2.71;100.00;99956.94;5094976;22;20567;-68
2023/01/08 03:15:34;;;;;;;43.70;21.00;;;;;;;2.78;100.00;99949.47;5111969;22;25332;-67
2023/01/08 03:18:06;;;;;;;45.10;20.83;;;;;;;2.68;100.00;99946.66;5094736;23;20638;-69
2023/01/08 03:20:35;;;;;;;41.73;18.97;;;;;;;2.53;100.00;99946.78;5090080;23;22113;-67
2023/01/08 03:23:04;;;;;;;47.23;19.57;;;;;;;2.48;100.00;99948.88;5099755;23;21245;-66
2023/01/08 03:25:32;;;;;;;41.20;19.90;;;;;;;2.50;100.00;99941.72;5112515;23;21283;-65
2023/01/08 03:28:02;;;;;;;40.30;18.17;;;;;;;2.54;100.00;99943.19;5080040;23;20209;-69
2023/01/08 03:30:29;;;;;;;37.83;18.23;;;;;;;2.45;100.00;99946.44;5106582;23;20208;-69
2023/01/08 03:32:57;;;;;;;39.20;19.00;;;;;;;2.52;100.00;99945.06;5075413;23;20252;-67
2023/01/08 03:35:26;;;;;;;42.63;18.93;;;;;;;2.51;100.00;99938.16;5067652;23;20253;-66
2023/01/08 03:38:02;;;;;;;36.27;17.80;;;;;;;2.51;100.00;99943.41;5115891;23;21178;-67
2023/01/08 03:40:32;;;;;;;40.30;18.20;;;;;;;2.51;100.00;99932.06;5108273;23;20249;-69
2023/01/08 03:42:59;;;;;;;39.30;17.80;;;;;;;2.44;100.00;99931.66;5106197;23;20256;-68
2023/01/08 03:45:26;;;;;;;36.90;17.87;;;;;;;2.42;100.00;99928.28;5147593;22;20258;-67
2023/01/08 03:47:53;;;;;;;33.43;16.93;;;;;;;2.39;100.00;99938.16;5101625;23;20266;-68
2023/01/08 03:50:22;;;;;;;37.30;16.83;;;;;;;2.24;100.00;99942.66;5068523;23;20202;-68
2023/01/08 03:52:49;;;;;;;38.27;16.73;;;;;;;2.21;100.00;99940.25;5064597;23;20208;-70
2023/01/08 03:55:16;;;;;;;37.93;17.70;;;;;;;2.11;100.00;99934.78;5089542;23;22287;-68
2023/01/08 03:57:42;;;;;;;35.80;18.63;;;;;;;2.11;100.00;99938.25;5079940;23;23716;-70
2023/01/08 04:00:09;;;;;;;37.23;17.23;;;;;;;2.13;100.00;99938.16;5078252;23;20199;-69
2023/01/08 04:02:36;;;;;;;39.03;17.00;;;;;;;2.11;100.00;99933.00;5092109;23;21714;-69
2023/01/08 04:05:03;;;;;;;36.60;18.37;;;;;;;2.00;100.00;99932.88;5082193;23;21801;-71
2023/01/08 04:07:29;;;;;;;37.83;18.23;;;;;;;2.07;100.00;99934.16;5100233;23;20373;-69
2023/01/08 04:09:56;;;;;;;32.13;16.63;;;;;;;1.98;100.00;99937.38;5088220;23;20403;-68
2023/01/08 04:12:23;;;;;;;39.37;17.93;;;;;;;2.03;100.00;99943.16;5067243;23;20209;-71
2023/01/08 04:14:50;;;;;;;37.53;17.20;;;;;;;1.97;100.00;99948.00;5085162;23;20214;-69
2023/01/08 04:17:16;;;;;;;32.87;16.20;;;;;;;1.94;100.00;99938.53;5079388;23;23841;-70
2023/01/08 04:19:43;;;;;;;42.30;17.90;;;;;;;1.94;100.00;99949.00;5069037;22;20637;-67
2023/01/08 04:22:10;;;;;;;36.00;17.37;;;;;;;1.92;100.00;99945.69;5086470;22;20211;-67
2023/01/08 04:24:36;;;;;;;39.37;18.43;;;;;;;1.99;100.00;99941.72;5084931;22;20832;-65
2023/01/08 04:27:03;;;;;;;38.30;17.80;;;;;;;1.89;100.00;99935.38;5088786;22;21763;-67
2023/01/08 04:29:29;;;;;;;40.87;18.50;;;;;;;1.87;100.00;99926.75;5100763;23;20203;-66
2023/01/08 04:31:56;;;;;;;42.17;19.57;;;;;;;1.93;100.00;99920.28;5075329;23;21296;-69
2023/01/08 04:34:22;;;;;;;40.73;18.07;;;;;;;1.95;100.00;99924.47;5088638;23;20258;-66
2023/01/08 04:36:49;;;;;;;39.27;18.97;;;;;;;1.91;100.00;99915.13;5093700;23;21251;-67
2023/01/08 04:39:16;;;;;;;43.70;19.10;;;;;;;1.93;100.00;99905.38;5082702;23;25556;-66
2023/01/08 04:41:42;;;;;;;42.30;19.00;;;;;;;1.90;100.00;99916.06;5092974;23;25582;-70
2023/01/08 04:44:09;;;;;;;43.17;19.57;;;;;;;1.92;100.00;99914.19;5088359;23;20211;-66
2023/01/08 04:46:36;;;;;;;48.63;20.10;;;;;;;1.98;100.00;99921.63;5087704;23;20207;-68
2023/01/08 04:49:03;;;;;;;46.63;19.93;;;;;;;2.00;100.00;99917.13;5085188;22;20372;-66
2023/01/08 04:51:29;;;;;;;43.93;20.00;;;;;;;2.01;100.00;99916.19;5149599;22;21791;-67
2023/01/08 04:53:56;;;;;;;40.97;18.50;;;;;;;2.02;100.00;99909.16;5128785;22;20209;-66
2023/01/08 04:56:23;;;;;;;40.57;18.33;;;;;;;2.03;100.00;99903.78;5126980;22;22127;-66
2023/01/08 04:58:49;;;;;;;43.17;19.43;;;;;;;2.16;100.00;99910.88;5092340;22;20207;-69
2023/01/08 05:01:21;;;;;;;41.20;19.07;;;;;;;2.06;100.00;99913.25;5128322;22;23590;-66
2023/01/08 05:03:56;;;;;;;38.90;17.80;;;;;;;2.06;100.00;99911.47;5118529;22;20954;-69
2023/01/08 05:06:23;;;;;;;44.27;18.60;;;;;;;2.07;100.00;99902.66;5105473;22;20420;-69
2023/01/08 05:08:49;;;;;;;39.57;18.60;;;;;;;2.05;100.00;99895.81;5130771;22;20202;-68
2023/01/08 05:11:16;;;;;;;41.07;18.57;;;;;;;2.05;100.00;99903.69;5109887;22;20202;-68
2023/01/08 05:13:42;;;;;;;36.67;18.17;;;;;;;2.07;100.00;99905.28;5116976;22;21592;-69
2023/01/08 05:16:09;;;;;;;39.17;17.93;;;;;;;2.11;100.00;99895.44;5125228;22;20278;-67
2023/01/08 05:18:35;;;;;;;36.60;17.03;;;;;;;2.15;100.00;99896.03;5124421;22;20206;-67
2023/01/08 05:21:03;;;;;;;40.27;17.87;;;;;;;2.18;100.00;99895.81;5111138;22;22570;-66
2023/01/08 05:23:31;;;;;;;35.40;17.03;;;;;;;2.16;100.00;99884.63;5102173;22;21145;-67
2023/01/08 05:25:59;;;;;;;34.30;15.90;;;;;;;2.14;100.00;99879.47;5112965;22;20205;-66
2023/01/08 05:28:26;;;;;;;39.30;17.67;;;;;;;2.19;100.00;99889.66;5100154;22;20512;-66
2023/01/08 05:30:53;;;;;;;37.33;16.70;;;;;;;2.18;100.00;99888.81;5127918;22;21745;-66
2023/01/08 05:33:20;;;;;;;35.73;16.97;;;;;;;2.15;100.00;99888.16;5119209;22;20202;-64
2023/01/08 05:35:46;;;;;;;34.33;15.97;;;;;;;2.18;100.00;99890.56;5115810;22;23716;-66
2023/01/08 05:38:13;;;;;;;30.37;15.20;;;;;;;2.10;100.00;99889.31;5121739;22;20238;-67
2023/01/08 05:40:40;;;;;;;33.07;15.17;;;;;;;2.10;100.00;99889.31;5127313;22;20202;-65
2023/01/08 05:43:06;;;;;;;33.90;15.83;;;;;;;2.09;100.00;99890.28;5150664;22;20261;-69
2023/01/08 05:45:33;;;;;;;31.63;14.13;;;;;;;2.07;100.00;99889.53;5091488;23;20328;-66
2023/01/08 05:48:04;;;;;;;29.53;14.00;;;;;;;2.04;100.00;99884.50;5123474;22;22353;-65
2023/01/08 05:50:30;;;;;;;28.43;13.30;;;;;;;2.04;100.00;99886.28;5119762;22;20262;-67
2023/01/08 05:52:57;;;;;;;27.07;13.23;;;;;;;2.02;100.00;99873.25;5117214;23;20320;-66
2023/01/08 05:55:23;;;;;;;28.27;13.10;;;;;;;2.03;100.00;99880.19;5100927;23;20390;-66
2023/01/08 05:57:50;;;;;;;30.80;13.10;;;;;;;2.02;100.00;99889.00;5107811;23;20272;-69
2023/01/08 06:00:17;;;;;;;28.03;13.33;;;;;;;2.03;100.00;99888.06;5102020;23;20425;-67
2023/01/08 06:02:47;;;;;;;27.07;13.40;;;;;;;2.01;100.00;99870.72;5085554;23;20316;-65
2023/01/08 06:05:14;;;;;;;26.27;12.17;;;;;;;1.99;100.00;99873.47;5087029;23;22916;-67
2023/01/08 06:07:41;;;;;;;27.80;13.20;;;;;;;1.90;100.00;99868.84;5089604;23;20225;-66
2023/01/08 06:10:08;;;;;;;26.83;12.27;;;;;;;1.89;100.00;99877.66;5103853;23;20199;-68
2023/01/08 06:12:34;;;;;;;27.43;12.17;;;;;;;1.92;100.00;99882.72;5094031;23;20364;-64
2023/01/08 06:15:02;;;;;;;28.70;12.37;;;;;;;1.96;100.00;99870.22;5108341;23;21964;-69
2023/01/08 06:17:28;;;;;;;28.50;12.50;;;;;;;1.87;100.00;99879.53;5079510;23;20377;-68
2023/01/08 06:19:55;;;;;;;26.67;12.43;;;;;;;1.93;100.00;99879.13;5087506;23;20204;-68
2023/01/08 06:22:21;;;;;;;29.90;12.67;;;;;;;1.88;100.00;99876.81;5087775;23;20442;-66
2023/01/08 06:24:48;;;;;;;23.93;12.17;;;;;;;1.87;100.00;99875.16;5108466;23;20718;-69
2023/01/08 06:27:15;;;;;;;25.37;12.83;;;;;;;1.87;100.00;99864.66;5139104;23;21714;-66
2023/01/08 06:29:41;;;;;;;26.00;12.07;;;;;;;1.91;100.00;99860.03;5109131;23;20210;-42
2023/01/08 06:32:08;;;;;;;30.00;11.30;;;;;;;1.92;100.00;99859.09;5079777;23;24989;-65
2023/01/08 06:34:35;;;;;;;24.10;11.33;;;;;;;1.85;100.00;99863.06;5102206;23;20930;-64
2023/01/08 06:37:01;;;;;;;31.33;11.93;;;;;;;1.88;100.00;99858.44;5100509;23;21278;-65
2023/01/08 06:39:28;;;;;;;25.80;12.57;;;;;;;1.83;100.00;99864.97;5109586;23;20221;-65
2023/01/08 06:41:54;;;;;;;29.33;12.27;;;;;;;1.80;100.00;99860.78;5121195;23;20199;-65
2023/01/08 06:44:21;;;;;;;26.90;12.63;;;;;;;1.88;100.00;99855.00;5124306;23;20202;-67
2023/01/08 06:46:48;;;;;;;27.53;11.93;;;;;;;1.90;100.00;99847.88;5111792;23;20198;-66
2023/01/08 06:49:16;;;;;;;26.57;12.03;;;;;;;1.80;100.00;99849.41;5102156;22;22210;-69
2023/01/08 06:51:43;;;;;;;30.07;12.37;;;;;;;1.73;100.00;99848.16;5122830;22;20309;-68
2023/01/08 06:54:09;;;;;;;26.93;11.53;;;;;;;1.68;100.00;99841.41;5137409;22;21740;-66
2023/01/08 06:56:39;;;;;;;23.70;11.63;;;;;;;1.75;100.00;99841.84;5134781;22;20212;-66
2023/01/08 06:59:19;;;;;;;27.70;12.87;;;;;;;1.75;100.00;99849.72;5109492;22;20198;-68
2023/01/08 07:01:46;;;;;;;29.33;12.13;;;;;;;1.72;100.00;99855.19;5118972;22;20278;-70
2023/01/08 07:04:13;;;;;;;28.73;11.80;;;;;;;1.79;100.00;99850.38;5110570;22;20213;-66
2023/01/08 07:06:39;;;;;;;26.23;12.07;;;;;;;1.81;100.00;99848.47;5115167;22;21679;-68
2023/01/08 07:09:06;;;;;;;27.43;11.87;;;;;;;1.75;100.00;99859.38;5122416;22;20202;-67
2023/01/08 07:11:32;;;;;;;23.30;11.30;;;;;;;1.75;100.00;99848.88;5110814;22;20248;-65
2023/01/08 07:13:59;;;;;;;27.53;11.93;;;;;;;1.69;100.00;99847.53;5122417;22;20210;-69
2023/01/08 07:16:26;;;;;;;28.80;11.67;;;;;;;1.68;100.00;99835.34;5121635;22;20269;-66
2023/01/08 07:18:52;;;;;;;31.43;12.03;;;;;;;1.64;100.00;99836.50;5112585;22;20207;-71
2023/01/08 07:21:21;;;;;;;28.50;12.20;;;;;;;1.80;100.00;99836.28;5108895;22;26624;-67
2023/01/08 07:23:49;;;;;;;26.20;11.00;;;;;;;1.74;100.00;99828.84;5110587;22;20259;-69
2023/01/08 07:26:16;;;;;;;28.10;11.87;;;;;;;1.70;100.00;99828.22;5113958;22;20202;-66
2023/01/08 07:28:42;;;;;;;27.33;11.17;;;;;;;1.66;100.00;99830.22;5123180;22;26272;-67
2023/01/08 07:31:09;;;;;;;25.43;11.90;;;;;;;1.66;100.00;99827.59;5112278;22;20321;-67
2023/01/08 07:33:36;;;;;;;24.27;11.27;;;;;;;1.68;100.00;99824.84;5161461;22;21184;-68
2023/01/08 07:36:04;;;;;;;25.03;11.97;;;;;;;1.72;100.00;99820.25;5177269;22;20208;-66
2023/01/08 07:38:31;;;;;;;28.23;11.40;;;;;;;1.69;100.00;99813.44;5150125;22;20850;-66
2023/01/08 07:40:57;;;;;;;32.40;13.27;;;;;;;1.63;100.00;99806.81;5170353;22;21597;-64
2023/01/08 07:43:25;;;;;;;27.77;12.33;;;;;;;1.65;100.00;99807.53;5124548;22;20217;-62
2023/01/08 07:45:51;;;;;;;28.33;12.03;;;;;;;1.65;100.00;99818.03;5096847;22;20668;-65
2023/01/08 07:48:19;;;;;;;27.70;13.00;;;;;;;1.67;100.00;99815.31;5115192;22;22309;-62
2023/01/08 07:50:46;;;;;;;27.73;12.07;;;;;;;1.74;100.00;99810.50;5142482;22;20209;-64
2023/01/08 07:53:15;;;;;;;30.57;11.87;;;;;;;1.68;100.00;99812.56;5126988;22;21707;-64
2023/01/08 07:55:42;;;;;;;30.63;12.43;;;;;;;1.65;100.00;99812.78;5145611;22;22296;-63
2023/01/08 07:58:13;;;;;;;28.37;11.90;;;;;;;1.65;100.00;99810.16;5152600;22;20207;-64
2023/01/08 08:00:40;;;;;;;25.37;11.80;;;;;;;1.62;100.00;99813.00;5166975;22;20674;-63
2023/01/08 08:03:10;;;;;;;25.93;12.10;;;;;;;1.59;100.00;99807.97;5173715;22;20241;-64
2023/01/08 08:05:37;;;;;;;30.73;12.37;;;;;;;1.58;100.00;99811.53;5181814;22;20203;-65
2023/01/08 08:08:11;;;;;;;29.37;11.47;;;;;;;1.59;100.00;99807.09;5157632;22;20208;-66
2023/01/08 08:10:38;;;;;;;28.80;12.47;;;;;;;1.56;100.00;99812.56;5105210;22;20291;-63
2023/01/08 08:13:06;;;;;;;27.93;12.03;;;;;;;1.59;100.00;99815.84;5142449;22;20319;-64
2023/01/08 08:15:34;;;;;;;29.43;12.10;;;;;;;1.62;100.00;99818.25;5165006;22;20206;-65
2023/01/08 08:18:01;;;;;;;30.63;12.97;;;;;;;1.62;100.00;99813.00;5127063;22;20214;-65
2023/01/08 08:20:27;;;;;;;27.47;12.23;;;;;;;1.62;100.00;99812.16;5154713;22;20246;-66
2023/01/08 08:23:02;;;;;;;27.43;11.77;;;;;;;1.71;100.00;99805.44;5121973;22;20206;-62
2023/01/08 08:25:29;;;;;;;30.43;12.83;;;;;;;1.74;100.00;99800.00;5126860;22;20202;-67
2023/01/08 08:27:57;;;;;;;27.63;11.93;;;;;;;1.70;100.00;99799.38;5108865;22;20628;-64
2023/01/08 08:30:24;;;;;;;30.53;11.60;;;;;;;1.73;100.00;99796.53;5131638;22;20205;-64
2023/01/08 08:32:52;;;;;;;27.93;12.10;;;;;;;1.72;100.00;99796.66;5109194;22;20202;-63
2023/01/08 08:35:20;;;;;;;29.90;12.57;;;;;;;1.78;100.00;99786.59;5095172;23;21309;-64
2023/01/08 08:37:46;;;;;;;26.37;11.40;;;;;;;1.74;100.00;99782.47;5123647;22;20221;-66
2023/01/08 08:40:13;;;;;;;25.90;11.70;;;;;;;1.74;100.00;99771.16;5101261;22;20209;-65
2023/01/08 08:42:39;;;;;;;29.47;12.27;;;;;;;1.74;100.00;99784.28;5109653;22;20205;-66
2023/01/08 08:45:06;;;;;;;29.13;12.30;;;;;;;1.80;100.00;99778.59;5131436;22;20336;-65
2023/01/08 08:47:33;;;;;;;31.80;12.40;;;;;;;1.83;100.00;99783.66;5120516;22;23619;-62
2023/01/08 08:50:01;;;;;;;31.33;12.63;;;;;;;1.81;100.00;99790.78;5118658;22;21185;-66
2023/01/08 08:52:29;;;;;;;30.30;12.13;;;;;;;1.90;100.00;99769.16;5095562;22;21061;-67
2023/01/08 08:54:56;;;;;;;31.37;12.87;;;;;;;1.93;100.00;99771.56;5101997;23;20272;-66
2023/01/08 08:57:23;;;;;;;33.07;12.57;;;;;;;2.02;100.00;99762.22;5075621;22;21322;-66
2023/01/08 08:59:49;;;;;;;29.80;13.13;;;;;;;2.00;100.00;99769.34;5091823;23;20660;-71
2023/01/08 09:02:16;;;;;;;25.43;11.90;;;;;;;2.08;100.00;99778.38;5111223;22;20287;-66
2023/01/08 09:04:45;;;;;;;31.17;11.93;;;;;;;2.05;100.00;99777.75;5139302;22;20203;-67
2023/01/08 09:07:12;;;;;;;28.50;12.13;;;;;;;2.03;100.00;99784.88;5093894;23;20240;-67
2023/01/08 09:09:38;;;;;;;31.30;13.50;;;;;;;2.00;100.00;99780.69;5104731;22;20667;-67
2023/01/08 09:12:06;;;;;;;24.33;12.00;;;;;;;2.03;100.00;99783.09;5090979;23;20427;-63
2023/01/08 09:14:33;;;;;;;29.37;12.53;;;;;;;2.10;100.00;99786.13;5118325;23;22925;-64
2023/01/08 09:16:59;;;;;;;31.30;12.80;;;;;;;2.06;100.00;99785.50;5107128;23;20391;-65
2023/01/08 09:19:26;;;;;;;28.87;13.27;;;;;;;2.08;100.00;99777.50;5069497;23;20346;-65
2023/01/08 09:21:52;;;;;;;32.47;12.50;;;;;;;2.15;100.00;99764.81;5083119;23;20291;-65
2023/01/08 09:24:19;;;;;;;26.80;12.37;;;;;;;2.15;100.00;99764.81;5109478;23;20209;-62
2023/01/08 09:26:46;;;;;;;29.90;11.93;;;;;;;2.22;100.00;99768.69;5094688;23;20267;-68
2023/01/08 09:29:12;;;;;;;29.87;12.00;;;;;;;2.21;100.00;99769.63;5090505;23;21505;-65
2023/01/08 09:31:39;;;;;;;30.83;12.60;;;;;;;2.27;100.00;99759.56;5108672;22;20293;-65
2023/01/08 09:34:05;;;;;;;31.27;13.20;;;;;;;2.29;100.00;99754.16;5117488;22;20422;-63
2023/01/08 09:36:32;;;;;;;28.27;13.30;;;;;;;2.46;100.00;99758.25;5123039;22;20365;-66
2023/01/08 09:38:59;;;;;;;24.73;12.13;;;;;;;2.52;100.00;99758.63;5119181;22;20209;-68
2023/01/08 09:41:35;;;;;;;27.13;12.97;;;;;;;2.52;100.00;99755.16;5110958;22;21815;-66
2023/01/08 09:44:04;;;;;;;28.50;12.83;;;;;;;2.54;100.00;99748.00;5096697;22;22669;-65
2023/01/08 09:46:30;;;;;;;30.63;12.77;;;;;;;2.59;100.00;99745.06;5112190;22;21162;-63
2023/01/08 09:49:06;;;;;;;30.97;12.33;;;;;;;2.61;100.00;99743.16;5082031;23;20237;-67
2023/01/08 09:51:34;;;;;;;24.13;12.20;;;;;;;2.66;100.00;99735.78;5097271;23;20205;-66
2023/01/08 09:54:02;;;;;;;30.57;12.70;;;;;;;2.67;100.00;99727.78;5109040;23;24665;-65
2023/01/08 09:56:28;;;;;;;27.17;12.37;;;;;;;2.65;100.00;99734.13;5092756;23;20200;-68
2023/01/08 09:59:01;;;;;;;26.67;12.67;;;;;;;2.74;100.00;99728.19;5103140;23;25359;-70
2023/01/08 10:01:35;;;;;;;30.70;13.10;;;;;;;2.76;100.00;99731.50;5103152;23;20556;-68
2023/01/08 10:04:05;;;;;;;29.73;12.10;;;;;;;2.85;100.00;99730.84;5108608;23;20270;-67
2023/01/08 10:06:32;;;;;;;27.23;12.30;;;;;;;2.94;100.00;99732.78;5130989;23;20356;-64
2023/01/08 10:08:59;;;;;;;23.93;11.20;;;;;;;2.98;100.00;99724.69;5109950;23;20202;-66
2023/01/08 10:11:27;;;;;;;27.80;12.10;;;;;;;2.99;100.00;99731.63;5114686;23;20358;-68
2023/01/08 10:13:56;;;;;;;25.03;11.60;;;;;;;3.04;100.00;99735.56;5082169;23;22954;-67
2023/01/08 10:16:43;;;;;;;25.63;12.00;;;;;;;3.08;100.00;99718.63;5101443;23;22480;-70
2023/01/08 10:19:09;;;;;;;22.30;10.40;;;;;;;3.11;100.00;99718.41;5087372;23;20811;-69
2023/01/08 10:21:38;;;;;;;32.67;11.90;;;;;;;3.23;100.00;99719.28;5116428;23;20253;-68
2023/01/08 10:24:06;;;;;;;26.60;12.27;;;;;;;3.22;100.00;99720.22;5104492;23;21419;-69
2023/01/08 10:26:37;;;;;;;22.73;11.57;;;;;;;3.29;100.00;99713.53;5078829;23;20281;-69
2023/01/08 10:29:13;;;;;;;24.33;11.33;;;;;;;3.18;100.00;99705.63;5104599;23;20633;-68
2023/01/08 10:31:49;;;;;;;27.67;11.10;;;;;;;3.16;100.00;99704.91;5089996;23;20202;-67
2023/01/08 10:34:32;;;;;;;23.83;10.70;;;;;;;3.19;100.00;99704.69;5105388;23;20293;-68
2023/01/08 10:36:59;;;;;;;25.83;10.30;;;;;;;3.13;100.00;99702.50;5107715;23;20207;-67
2023/01/08 10:39:27;;;;;;;25.97;12.17;;;;;;;3.09;100.00;99693.16;5089212;23;20207;-69
2023/01/08 10:41:57;;;;;;;31.17;11.20;;;;;;;3.04;100.00;99684.81;5096994;23;20271;-68
2023/01/08 10:44:24;;;;;;;31.33;12.17;;;;;;;3.11;100.00;99678.13;5080897;23;20211;-70
2023/01/08 10:46:54;;;;;;;28.93;11.43;;;;;;;3.22;100.00;99662.38;5121878;23;20719;-70
2023/01/08 10:49:29;;;;;;;25.33;11.57;;;;;;;3.13;100.00;99661.28;5106923;22;22380;-68
2023/01/08 10:51:56;;;;;;;23.83;11.07;;;;;;;3.11;100.00;99662.34;5116563;22;20203;-69
2023/01/08 10:54:29;;;;;;;25.70;12.00;;;;;;;3.09;100.00;99654.59;5104436;23;20298;-67
2023/01/08 10:56:57;;;;;;;26.13;11.70;;;;;;;3.21;100.00;99650.19;5078876;23;20214;-66
2023/01/08 10:59:26;;;;;;;30.43;13.60;;;;;;;3.10;100.00;99651.00;5101470;23;22540;-68
2023/01/08 11:01:56;;;;;;;26.63;13.20;;;;;;;3.22;100.00;99654.50;5101835;23;20280;-67
2023/01/08 11:04:34;;;;;;;25.23;12.50;;;;;;;3.32;100.00;99660.72;5118224;23;20765;-68
2023/01/08 11:07:03;;;;;;;25.77;12.20;;;;;;;3.33;100.00;99661.56;5132282;23;20421;-69
2023/01/08 11:09:32;;;;;;;26.77;12.00;;;;;;;3.30;100.00;99654.75;5114546;23;20288;-64
2023/01/08 11:11:59;;;;;;;22.83;11.20;;;;;;;3.28;100.00;99654.03;5100819;23;20708;-69
2023/01/08 11:14:30;;;;;;;26.90;11.73;;;;;;;3.30;100.00;99649.50;5131210;22;21355;-67
2023/01/08 11:16:57;;;;;;;25.63;11.67;;;;;;;3.23;100.00;99645.66;5088045;23;21275;-70
2023/01/08 11:19:29;;;;;;;26.23;11.40;;;;;;;3.18;100.00;99647.78;5100516;23;20633;-68